createdAt,value
2018-12-27T00:01:29.754Z,9.50
2018-12-27T00:03:57.137Z,7.27
2018-12-27T00:06:25.610Z,9.60
2018-12-27T00:08:52.722Z,9.33
2018-12-27T00:11:20.182Z,9.40
2018-12-27T00:13:48.732Z,8.60
2018-12-27T00:16:16.918Z,9.40
2018-12-27T00:18:44.436Z,9.47
2018-12-27T00:21:11.513Z,10.70
2018-12-27T00:23:38.593Z,23.93
2018-12-27T00:26:05.306Z,11.40
2018-12-27T00:28:32.090Z,11.17
2018-12-27T00:30:58.882Z,10.10
2018-12-27T00:33:25.578Z,11.90
2018-12-27T00:35:52.481Z,8.53
2018-12-27T00:38:19.225Z,9.80
2018-12-27T00:40:46.192Z,9.00
2018-12-27T00:43:14.258Z,11.10
2018-12-27T00:45:40.956Z,10.83
2018-12-27T00:48:07.681Z,10.40
2018-12-27T00:50:35.807Z,9.67
2018-12-27T00:53:03.719Z,12.87
2018-12-27T00:55:30.423Z,8.97
2018-12-27T00:57:57.134Z,9.40
2018-12-27T01:00:23.842Z,10.70
2018-12-27T01:02:50.821Z,8.40
2018-12-27T01:05:17.644Z,8.63
2018-12-27T01:07:44.343Z,9.93
2018-12-27T01:10:13.195Z,10.30
2018-12-27T01:12:39.929Z,10.27
2018-12-27T01:15:06.740Z,7.10
2018-12-27T01:17:33.485Z,10.53
2018-12-27T01:20:00.325Z,8.80
2018-12-27T01:22:30.465Z,9.93
2018-12-27T01:24:57.193Z,7.60
2018-12-27T01:27:25.189Z,7.40
2018-12-27T01:29:51.925Z,8.70
2018-12-27T01:32:18.773Z,8.93
2018-12-27T01:34:45.615Z,8.47
2018-12-27T01:37:12.380Z,9.37
2018-12-27T01:39:44.186Z,10.60
2018-12-27T01:42:10.914Z,10.20
2018-12-27T01:44:38.590Z,7.40
2018-12-27T01:47:05.305Z,8.97
2018-12-27T01:49:32.005Z,9.03
2018-12-27T01:51:58.770Z,10.00
2018-12-27T01:54:25.575Z,9.63
2018-12-27T01:56:53.583Z,9.37
2018-12-27T01:59:20.850Z,8.47
2018-12-27T02:01:47.689Z,10.70
2018-12-27T02:04:14.412Z,9.60
2018-12-27T02:06:41.208Z,10.17
2018-12-27T02:09:07.932Z,9.27
2018-12-27T02:11:35.375Z,10.00
2018-12-27T02:14:04.033Z,9.20
2018-12-27T02:16:30.728Z,8.93
2018-12-27T02:18:57.404Z,8.87
2018-12-27T02:21:24.139Z,7.80
2018-12-27T02:23:52.244Z,10.53
2018-12-27T02:26:20.885Z,10.00
2018-12-27T02:28:47.637Z,7.47
2018-12-27T02:31:14.332Z,10.67
2018-12-27T02:33:41.009Z,9.13
2018-12-27T02:36:07.770Z,8.97
2018-12-27T02:38:34.465Z,8.00
2018-12-27T02:41:01.177Z,9.60
2018-12-27T02:43:30.724Z,7.83
2018-12-27T02:45:57.780Z,8.50
2018-12-27T02:48:24.487Z,9.60
2018-12-27T02:50:51.554Z,8.07
2018-12-27T02:53:18.258Z,7.60
2018-12-27T02:55:45.294Z,7.03
2018-12-27T02:58:12.565Z,6.80
2018-12-27T03:00:39.314Z,7.30
2018-12-27T03:03:06.006Z,7.10
2018-12-27T03:05:32.859Z,8.50
2018-12-27T03:07:59.693Z,9.57
2018-12-27T03:10:26.531Z,7.77
2018-12-27T03:12:53.346Z,6.47
2018-12-27T03:15:20.064Z,7.03
2018-12-27T03:17:46.772Z,10.93
2018-12-27T03:20:13.493Z,8.27
2018-12-27T03:22:43.120Z,8.30
2018-12-27T03:25:09.866Z,8.60
2018-12-27T03:27:36.630Z,7.93
2018-12-27T03:30:06.224Z,7.33
2018-12-27T03:32:34.033Z,9.30
2018-12-27T03:35:01.156Z,8.30
2018-12-27T03:37:27.909Z,8.83
2018-12-27T03:39:55.001Z,6.83
2018-12-27T03:42:24.864Z,9.43
2018-12-27T03:44:52.743Z,7.40
2018-12-27T03:47:19.477Z,8.87
2018-12-27T03:49:46.315Z,8.47
2018-12-27T03:52:13.048Z,8.30
2018-12-27T03:54:40.156Z,9.83
2018-12-27T03:57:06.870Z,6.87
2018-12-27T03:59:33.569Z,8.83
2018-12-27T04:02:00.291Z,9.10
2018-12-27T04:04:27.110Z,8.37
2018-12-27T04:06:53.800Z,8.90
2018-12-27T04:09:23.417Z,9.80
2018-12-27T04:11:50.123Z,10.60
2018-12-27T04:14:16.836Z,7.87
2018-12-27T04:16:43.722Z,9.97
2018-12-27T04:19:10.477Z,9.27
2018-12-27T04:21:38.285Z,10.10
2018-12-27T04:24:05.030Z,9.13
2018-12-27T04:26:31.766Z,8.70
2018-12-27T04:28:58.933Z,9.60
2018-12-27T04:31:25.710Z,9.03
2018-12-27T04:33:52.439Z,10.00
2018-12-27T04:36:19.176Z,9.50
2018-12-27T04:38:46.148Z,7.03
2018-12-27T04:41:15.492Z,8.50
2018-12-27T04:43:42.373Z,8.57
2018-12-27T04:46:09.469Z,10.43
2018-12-27T04:48:36.263Z,9.67
2018-12-27T04:51:03.053Z,10.40
2018-12-27T04:53:29.918Z,9.50
2018-12-27T04:55:56.681Z,9.67
2018-12-27T04:58:23.518Z,11.57
2018-12-27T05:00:50.324Z,11.27
2018-12-27T05:03:17.098Z,10.43
2018-12-27T05:05:44.166Z,10.23
2018-12-27T05:08:10.853Z,11.43
2018-12-27T05:10:37.805Z,9.87
2018-12-27T05:13:04.549Z,10.60
2018-12-27T05:15:31.655Z,10.23
2018-12-27T05:17:58.463Z,11.20
2018-12-27T05:20:25.214Z,10.40
2018-12-27T05:22:51.933Z,11.67
2018-12-27T05:25:21.760Z,7.80
2018-12-27T05:27:48.501Z,11.17
2018-12-27T05:30:16.618Z,8.83
2018-12-27T05:32:43.522Z,8.90
2018-12-27T05:35:10.543Z,9.13
2018-12-27T05:37:37.249Z,10.10
2018-12-27T05:40:04.433Z,8.80
2018-12-27T05:42:32.281Z,7.80
2018-12-27T05:44:58.964Z,7.33
2018-12-27T05:47:25.947Z,7.30
2018-12-27T05:49:52.788Z,8.63
2018-12-27T05:52:21.076Z,9.50
2018-12-27T05:54:47.861Z,9.60
2018-12-27T05:57:14.612Z,7.80
2018-12-27T05:59:41.341Z,8.27
2018-12-27T06:02:10.642Z,10.70
2018-12-27T06:04:37.336Z,8.13
2018-12-27T06:07:04.074Z,8.50
2018-12-27T06:09:33.519Z,8.00
2018-12-27T06:12:00.693Z,8.90
2018-12-27T06:14:27.526Z,8.63
2018-12-27T06:16:54.573Z,10.50
2018-12-27T06:19:21.610Z,8.10
2018-12-27T06:21:48.464Z,8.10
2018-12-27T06:24:15.176Z,7.47
2018-12-27T06:26:41.945Z,8.60
2018-12-27T06:29:08.837Z,8.50
2018-12-27T06:31:35.609Z,10.97
2018-12-27T06:34:02.476Z,11.57
2018-12-27T06:36:29.926Z,6.67
2018-12-27T06:38:56.673Z,11.23
2018-12-27T06:41:23.438Z,9.77
2018-12-27T06:43:50.122Z,9.00
2018-12-27T06:46:16.944Z,10.67
2018-12-27T06:48:43.711Z,10.07
2018-12-27T06:51:10.545Z,9.43
2018-12-27T06:53:37.412Z,10.47
2018-12-27T06:56:04.140Z,10.40
2018-12-27T06:58:37.593Z,9.00
2018-12-27T07:00:59.477Z,8.77
2018-12-27T07:03:26.238Z,10.30
2018-12-27T07:05:52.955Z,8.77
2018-12-27T07:08:19.745Z,11.40
2018-12-27T07:10:46.742Z,10.60
2018-12-27T07:13:13.618Z,9.57
2018-12-27T07:15:40.317Z,9.77
2018-12-27T07:18:07.810Z,8.93
2018-12-27T07:20:34.524Z,8.13
2018-12-27T07:23:01.344Z,8.23
2018-12-27T07:25:28.101Z,10.20
2018-12-27T07:27:57.355Z,12.10
2018-12-27T07:30:24.134Z,9.73
2018-12-27T07:32:50.874Z,9.03
2018-12-27T07:35:17.853Z,9.30
2018-12-27T07:37:44.733Z,10.37
2018-12-27T07:40:11.721Z,9.50
2018-12-27T07:42:38.557Z,9.93
2018-12-27T07:45:08.213Z,11.70
2018-12-27T07:47:35.039Z,8.80
2018-12-27T07:50:01.772Z,11.17
2018-12-27T07:52:28.686Z,12.90
2018-12-27T07:54:55.708Z,17.77
2018-12-27T07:57:22.469Z,29.70
2018-12-27T07:59:49.219Z,11.87
2018-12-27T08:02:17.844Z,7.13
2018-12-27T08:04:44.581Z,15.30
2018-12-27T08:07:11.294Z,12.73
2018-12-27T08:09:38.220Z,10.43
2018-12-27T08:12:04.948Z,11.90
2018-12-27T08:14:31.900Z,11.50
2018-12-27T08:16:58.596Z,11.57
2018-12-27T08:19:25.352Z,9.63
2018-12-27T08:21:52.141Z,12.63
2018-12-27T08:24:19.195Z,10.67
2018-12-27T08:26:46.121Z,8.77
2018-12-27T08:29:14.547Z,11.90
2018-12-27T08:31:41.292Z,10.97
2018-12-27T08:34:08.473Z,11.17
2018-12-27T08:36:35.352Z,10.50
2018-12-27T08:39:03.395Z,11.70
2018-12-27T08:41:30.074Z,11.60
2018-12-27T08:43:56.959Z,12.10
2018-12-27T08:46:24.534Z,14.87
2018-12-27T08:48:51.600Z,13.10
2018-12-27T08:51:19.542Z,15.83
2018-12-27T08:53:46.264Z,13.77
2018-12-27T08:56:13.104Z,16.20
2018-12-27T08:58:40.450Z,13.47
2018-12-27T09:01:07.217Z,13.73
2018-12-27T09:03:34.385Z,10.00
2018-12-27T09:06:01.612Z,9.63
2018-12-27T09:08:28.611Z,12.70
2018-12-27T09:10:55.503Z,13.63
2018-12-27T09:13:22.300Z,16.90
2018-12-27T09:15:51.037Z,17.30
2018-12-27T09:18:17.723Z,15.00
2018-12-27T09:20:44.473Z,17.67
2018-12-27T09:23:15.486Z,19.73
2018-12-27T09:25:42.906Z,15.93
2018-12-27T09:28:09.635Z,17.93
2018-12-27T09:30:38.333Z,14.87
2018-12-27T09:33:05.004Z,15.03
2018-12-27T09:35:31.737Z,12.87
2018-12-27T09:38:00.680Z,14.43
2018-12-27T09:40:27.410Z,17.40
2018-12-27T09:42:56.552Z,17.07
2018-12-27T09:45:25.185Z,14.90
2018-12-27T09:47:53.580Z,17.83
2018-12-27T09:50:20.300Z,13.07
2018-12-27T09:52:48.287Z,16.83
2018-12-27T09:55:15.061Z,14.70
2018-12-27T09:57:42.096Z,16.63
2018-12-27T10:00:08.973Z,16.57
2018-12-27T10:02:35.719Z,21.43
2018-12-27T10:05:03.029Z,12.60
2018-12-27T10:07:29.908Z,14.80
2018-12-27T10:09:56.637Z,14.20
2018-12-27T10:12:23.707Z,16.23
2018-12-27T10:14:50.740Z,16.07
2018-12-27T10:17:17.686Z,16.70
2018-12-27T10:19:45.963Z,16.20
2018-12-27T10:22:12.782Z,19.90
2018-12-27T10:24:39.647Z,16.60
2018-12-27T10:27:06.384Z,15.70
2018-12-27T10:29:33.426Z,20.07
2018-12-27T10:32:00.395Z,17.13
2018-12-27T10:34:27.098Z,19.47
2018-12-27T10:36:54.091Z,17.33
2018-12-27T10:39:20.945Z,17.93
2018-12-27T10:41:47.864Z,16.57
2018-12-27T10:44:14.582Z,17.73
2018-12-27T10:46:41.377Z,20.67
2018-12-27T10:49:08.479Z,17.20
2018-12-27T10:51:35.172Z,21.70
2018-12-27T10:54:02.088Z,18.60
2018-12-27T10:56:28.985Z,19.77
2018-12-27T10:58:55.912Z,17.83
2018-12-27T11:01:23.164Z,19.00
2018-12-27T11:03:50.414Z,21.10
2018-12-27T11:06:17.396Z,16.77
2018-12-27T11:08:44.458Z,15.50
2018-12-27T11:11:13.068Z,20.03
2018-12-27T11:13:41.785Z,15.37
2018-12-27T11:16:09.019Z,16.43
2018-12-27T11:18:36.950Z,19.00
2018-12-27T11:21:03.898Z,19.80
2018-12-27T11:23:30.775Z,15.43
2018-12-27T11:25:57.559Z,17.77
2018-12-27T11:28:24.420Z,16.83
2018-12-27T11:30:53.499Z,14.40
2018-12-27T11:33:20.388Z,17.50
2018-12-27T11:35:47.603Z,17.90
2018-12-27T11:38:14.542Z,15.57
2018-12-27T11:40:41.804Z,18.63
2018-12-27T11:43:09.639Z,17.27
2018-12-27T11:45:36.986Z,20.47
2018-12-27T11:48:04.294Z,18.43
2018-12-27T11:50:31.444Z,19.37
2018-12-27T11:52:58.168Z,16.23
2018-12-27T11:55:25.105Z,21.70
2018-12-27T11:57:51.970Z,15.03
2018-12-27T12:00:19.103Z,17.93
2018-12-27T12:02:45.876Z,20.50
2018-12-27T12:05:13.198Z,21.60
2018-12-27T12:07:40.344Z,22.67
2018-12-27T12:10:07.133Z,22.67
2018-12-27T12:12:38.414Z,19.10
2018-12-27T12:15:06.142Z,17.77
2018-12-27T12:17:32.960Z,20.37
2018-12-27T12:19:59.760Z,23.87
2018-12-27T12:22:26.546Z,26.33
2018-12-27T12:24:53.454Z,17.90
2018-12-27T12:27:20.300Z,19.17
2018-12-27T12:29:50.047Z,19.27
2018-12-27T12:32:17.355Z,19.83
2018-12-27T12:34:44.120Z,16.03
2018-12-27T12:37:14.206Z,18.33
2018-12-27T12:39:39.853Z,21.07
2018-12-27T12:42:07.006Z,17.67
2018-12-27T12:44:34.044Z,20.13
2018-12-27T12:47:01.144Z,19.87
2018-12-27T12:49:31.645Z,17.67
2018-12-27T12:51:58.536Z,23.70
2018-12-27T12:54:25.306Z,19.97
2018-12-27T12:56:52.343Z,19.30
2018-12-27T12:59:19.848Z,24.40
2018-12-27T13:01:46.951Z,22.73
2018-12-27T13:04:15.093Z,21.57
2018-12-27T13:06:42.445Z,21.97
2018-12-27T13:09:10.439Z,23.10
2018-12-27T13:11:37.848Z,20.90
2018-12-27T13:14:04.957Z,17.70
2018-12-27T13:16:31.992Z,20.33
2018-12-27T13:18:58.824Z,20.90
2018-12-27T13:21:25.709Z,25.37
2018-12-27T13:23:52.779Z,20.90
2018-12-27T13:26:19.690Z,22.23
2018-12-27T13:28:48.426Z,21.00
2018-12-27T13:31:15.188Z,20.20
2018-12-27T13:33:42.595Z,26.30
2018-12-27T13:36:09.902Z,25.97
2018-12-27T13:38:37.139Z,24.13
2018-12-27T13:41:04.094Z,20.60
2018-12-27T13:43:30.973Z,24.57
2018-12-27T13:45:59.616Z,24.10
2018-12-27T13:48:27.787Z,17.87
2018-12-27T13:50:54.520Z,22.47
2018-12-27T13:53:21.420Z,19.93
2018-12-27T13:55:48.565Z,20.33
2018-12-27T13:58:15.332Z,16.10
2018-12-27T14:00:42.100Z,18.50
2018-12-27T14:03:09.206Z,19.83
2018-12-27T14:05:36.086Z,22.33
2018-12-27T14:08:02.908Z,17.27
2018-12-27T14:10:32.419Z,17.97
2018-12-27T14:12:59.159Z,17.33
2018-12-27T14:15:26.113Z,21.87
2018-12-27T14:17:53.322Z,19.97
2018-12-27T14:20:20.225Z,20.63
2018-12-27T14:22:47.345Z,14.13
2018-12-27T14:25:14.233Z,13.70
2018-12-27T14:27:41.565Z,15.23
2018-12-27T14:30:08.403Z,16.40
2018-12-27T14:32:35.564Z,17.40
2018-12-27T14:35:03.719Z,38.17
2018-12-27T14:37:30.413Z,15.23
2018-12-27T14:39:57.415Z,16.70
2018-12-27T14:42:35.700Z,14.77
2018-12-27T14:45:02.697Z,15.83
2018-12-27T14:47:29.444Z,12.83
2018-12-27T14:49:56.312Z,16.70
2018-12-27T14:52:24.701Z,16.53
2018-12-27T14:54:51.497Z,16.67
2018-12-27T14:57:18.368Z,21.93
2018-12-27T14:59:45.437Z,20.47
2018-12-27T15:02:14.309Z,14.83
2018-12-27T15:04:41.234Z,16.77
2018-12-27T15:07:09.449Z,16.40
2018-12-27T15:09:37.663Z,22.77
2018-12-27T15:12:04.503Z,23.27
2018-12-27T15:14:31.378Z,18.23
2018-12-27T15:16:58.055Z,18.80
2018-12-27T15:19:25.338Z,21.33
2018-12-27T15:21:52.702Z,20.50
2018-12-27T15:24:19.530Z,19.20
2018-12-27T15:26:46.264Z,21.57
2018-12-27T15:29:13.246Z,16.73
2018-12-27T15:31:40.061Z,15.90
2018-12-27T15:34:06.817Z,16.87
2018-12-27T15:36:34.622Z,20.80
2018-12-27T15:39:01.356Z,21.03
2018-12-27T15:41:29.303Z,18.40
2018-12-27T15:43:56.044Z,18.90
2018-12-27T15:46:22.726Z,22.77
2018-12-27T15:48:49.484Z,21.00
2018-12-27T15:51:16.228Z,23.90
2018-12-27T15:53:43.086Z,28.90
2018-12-27T15:56:09.798Z,21.83
2018-12-27T15:58:36.683Z,23.70
2018-12-27T16:01:03.730Z,23.37
2018-12-27T16:03:30.535Z,22.47
2018-12-27T16:05:57.301Z,21.80
2018-12-27T16:08:24.020Z,31.63
2018-12-27T16:10:51.128Z,24.50
2018-12-27T16:13:17.831Z,25.07
2018-12-27T16:15:44.540Z,23.87
2018-12-27T16:18:11.266Z,24.03
2018-12-27T16:20:38.029Z,23.87
2018-12-27T16:23:04.818Z,23.60
2018-12-27T16:25:31.679Z,18.07
2018-12-27T16:27:58.647Z,22.20
2018-12-27T16:30:25.426Z,21.80
2018-12-27T16:32:52.304Z,20.07
2018-12-27T16:35:19.183Z,18.77
2018-12-27T16:37:46.090Z,30.30
2018-12-27T16:40:13.487Z,27.97
2018-12-27T16:42:44.106Z,25.00
2018-12-27T16:45:11.127Z,20.57
2018-12-27T16:47:40.605Z,16.77
2018-12-27T16:50:08.144Z,18.93
2018-12-27T16:52:35.313Z,18.67
2018-12-27T16:55:02.321Z,17.27
2018-12-27T16:57:30.633Z,18.93
2018-12-27T16:59:57.650Z,21.13
2018-12-27T17:02:24.633Z,19.97
2018-12-27T17:04:51.407Z,19.93
2018-12-27T17:07:18.340Z,19.73
2018-12-27T17:09:45.176Z,18.13
2018-12-27T17:12:12.397Z,20.30
2018-12-27T17:14:39.143Z,25.30
2018-12-27T17:17:05.985Z,21.03
2018-12-27T17:19:35.413Z,19.70
2018-12-27T17:22:02.506Z,22.07
2018-12-27T17:24:30.831Z,24.57
2018-12-27T17:26:58.012Z,24.33
2018-12-27T17:29:25.100Z,30.47
2018-12-27T17:31:52.356Z,25.43
2018-12-27T17:34:19.055Z,22.63
2018-12-27T17:36:45.863Z,36.50
2018-12-27T17:39:14.212Z,20.43
2018-12-27T17:41:42.579Z,22.93
2018-12-27T17:44:09.490Z,22.50
2018-12-27T17:46:37.874Z,22.00
2018-12-27T17:49:08.743Z,20.60
2018-12-27T17:51:35.798Z,21.90
2018-12-27T17:54:02.602Z,23.93
2018-12-27T17:56:29.415Z,24.27
2018-12-27T17:58:56.186Z,22.13
2018-12-27T18:01:22.915Z,21.60
2018-12-27T18:03:49.624Z,21.53
2018-12-27T18:06:16.461Z,23.33
2018-12-27T18:08:43.302Z,21.40
2018-12-27T18:11:10.171Z,21.37
2018-12-27T18:13:37.408Z,18.53
2018-12-27T18:16:04.772Z,19.10
2018-12-27T18:18:31.568Z,22.87
2018-12-27T18:20:59.118Z,20.17
2018-12-27T18:23:25.924Z,23.27
2018-12-27T18:25:55.139Z,19.50
2018-12-27T18:28:23.531Z,25.20
2018-12-27T18:30:50.742Z,21.77
2018-12-27T18:33:18.892Z,23.93
2018-12-27T18:35:45.863Z,24.47
2018-12-27T18:38:13.466Z,24.70
2018-12-27T18:40:47.330Z,21.70
2018-12-27T18:43:14.144Z,22.50
2018-12-27T18:45:40.951Z,23.13
2018-12-27T18:48:07.688Z,22.87
2018-12-27T18:50:34.406Z,21.43
2018-12-27T18:53:03.138Z,25.47
2018-12-27T18:55:30.283Z,26.13
2018-12-27T18:57:57.518Z,29.33
2018-12-27T19:00:24.587Z,30.83
2018-12-27T19:02:51.323Z,31.07
2018-12-27T19:05:18.087Z,37.30
2018-12-27T19:07:45.276Z,32.50
2018-12-27T19:10:13.586Z,28.00
2018-12-27T19:13:08.901Z,23.37
2018-12-27T19:15:48.285Z,28.70
2018-12-27T19:18:27.238Z,24.07
2018-12-27T19:20:59.712Z,23.87
2018-12-27T19:23:27.605Z,30.33
2018-12-27T19:25:54.437Z,24.97
2018-12-27T19:28:21.468Z,29.33
2018-12-27T19:30:48.723Z,29.37
2018-12-27T19:33:15.542Z,27.13
2018-12-27T19:35:42.388Z,24.67
2018-12-27T19:38:09.582Z,23.33
2018-12-27T19:40:36.290Z,23.20
2018-12-27T19:43:03.301Z,29.00
2018-12-27T19:45:30.101Z,27.20
2018-12-27T19:47:57.053Z,23.43
2018-12-27T19:50:25.266Z,25.03
2018-12-27T19:52:52.209Z,24.37
2018-12-27T19:55:19.089Z,28.07
2018-12-27T19:57:45.968Z,24.23
2018-12-27T20:00:13.117Z,22.60
2018-12-27T20:02:39.867Z,22.80
2018-12-27T20:05:06.926Z,24.97
2018-12-27T20:07:33.946Z,27.37
2018-12-27T20:10:00.826Z,23.10
2018-12-27T20:12:27.639Z,26.57
2018-12-27T20:14:54.384Z,26.43
2018-12-27T20:17:21.122Z,19.57
2018-12-27T20:19:47.841Z,22.10
2018-12-27T20:22:14.704Z,18.53
2018-12-27T20:24:42.142Z,21.00
2018-12-27T20:27:09.103Z,25.40
2018-12-27T20:29:36.132Z,23.50
2018-12-27T20:32:02.846Z,18.97
2018-12-27T20:34:29.559Z,19.93
2018-12-27T20:36:56.676Z,22.80
2018-12-27T20:39:24.000Z,21.60
2018-12-27T20:41:50.708Z,19.47
2018-12-27T20:44:17.537Z,21.70
2018-12-27T20:46:44.925Z,21.30
2018-12-27T20:49:11.672Z,24.77
2018-12-27T20:51:38.405Z,25.23
2018-12-27T20:54:07.279Z,22.77
2018-12-27T20:56:34.406Z,21.30
2018-12-27T20:59:01.264Z,22.67
2018-12-27T21:01:28.456Z,21.30
2018-12-27T21:03:55.369Z,24.80
2018-12-27T21:06:22.159Z,20.50
2018-12-27T21:08:48.878Z,22.97
2018-12-27T21:11:15.818Z,22.57
2018-12-27T21:13:42.545Z,25.13
2018-12-27T21:16:09.697Z,22.23
2018-12-27T21:18:36.590Z,23.77
2018-12-27T21:21:03.471Z,25.53
2018-12-27T21:23:30.770Z,24.70
2018-12-27T21:25:57.644Z,22.60
2018-12-27T21:28:24.349Z,22.00
2018-12-27T21:30:51.094Z,21.57
2018-12-27T21:33:17.914Z,20.73
2018-12-27T21:35:44.628Z,23.00
2018-12-27T21:38:11.457Z,24.83
2018-12-27T21:40:38.306Z,24.23
2018-12-27T21:43:05.361Z,21.30
2018-12-27T21:45:32.540Z,22.07
2018-12-27T21:47:59.810Z,22.10
2018-12-27T21:50:31.041Z,24.77
2018-12-27T21:52:57.902Z,22.20
2018-12-27T21:55:24.916Z,22.57
2018-12-27T21:57:53.928Z,26.10
2018-12-27T22:00:21.096Z,22.47
2018-12-27T22:02:48.055Z,21.67
2018-12-27T22:05:15.301Z,24.90
2018-12-27T22:07:42.414Z,28.20
2018-12-27T22:10:09.233Z,24.33
2018-12-27T22:12:36.155Z,21.50
2018-12-27T22:15:03.842Z,23.70
2018-12-27T22:17:30.565Z,23.10
2018-12-27T22:19:58.125Z,24.30
2018-12-27T22:22:25.201Z,27.57
2018-12-27T22:24:51.935Z,24.47
2018-12-27T22:27:18.680Z,22.00
2018-12-27T22:29:46.500Z,23.57
2018-12-27T22:32:13.305Z,23.10
2018-12-27T22:34:40.416Z,25.80
2018-12-27T22:37:11.580Z,25.50
2018-12-27T22:39:39.417Z,22.73
2018-12-27T22:42:06.307Z,23.77
2018-12-27T22:44:33.367Z,23.87
2018-12-27T22:47:00.079Z,25.23
2018-12-27T22:49:27.808Z,24.70
2018-12-27T22:51:54.506Z,25.30
2018-12-27T22:54:21.253Z,25.83
2018-12-27T22:56:50.720Z,22.70
2018-12-27T22:59:17.573Z,22.83
2018-12-27T23:01:44.361Z,26.13
2018-12-27T23:04:13.568Z,23.77
2018-12-27T23:06:40.508Z,23.50
2018-12-27T23:09:07.336Z,27.37
2018-12-27T23:11:34.096Z,25.47
2018-12-27T23:14:03.168Z,21.93
2018-12-27T23:16:29.874Z,22.10
2018-12-27T23:18:56.727Z,23.63
2018-12-27T23:21:23.587Z,22.63
2018-12-27T23:23:50.436Z,23.53
2018-12-27T23:26:17.165Z,24.10
2018-12-27T23:28:46.616Z,23.17
2018-12-27T23:31:13.334Z,24.73
2018-12-27T23:33:40.160Z,23.50
2018-12-27T23:36:07.165Z,26.43
2018-12-27T23:38:35.084Z,25.23
2018-12-27T23:41:01.859Z,23.13
2018-12-27T23:43:28.574Z,22.20
2018-12-27T23:45:55.400Z,23.60
2018-12-27T23:48:22.227Z,24.07
2018-12-27T23:50:49.041Z,27.50
2018-12-27T23:53:15.745Z,26.90
2018-12-27T23:55:42.497Z,26.20
2018-12-27T23:58:09.363Z,23.90
